createdAt,value
2018-04-01T00:00:51.187Z,2.63
2018-04-01T00:03:18.284Z,3.23
2018-04-01T00:05:45.424Z,2.50
2018-04-01T00:08:12.534Z,3.10
2018-04-01T00:10:39.688Z,2.80
2018-04-01T00:13:06.810Z,3.30
2018-04-01T00:15:34.693Z,3.07
2018-04-01T00:18:01.897Z,3.27
2018-04-01T00:20:28.975Z,2.37
2018-04-01T00:22:56.095Z,2.93
2018-04-01T00:25:23.181Z,3.10
2018-04-01T00:27:50.299Z,3.53
2018-04-01T00:30:17.403Z,3.17
2018-04-01T00:32:44.532Z,3.20
2018-04-01T00:35:11.656Z,3.60
2018-04-01T00:37:38.755Z,3.03
2018-04-01T00:40:05.863Z,3.83
2018-04-01T00:42:33.734Z,3.90
2018-04-01T00:45:01.633Z,4.13
2018-04-01T00:47:28.759Z,3.20
2018-04-01T00:49:55.847Z,3.03
2018-04-01T00:52:22.975Z,3.33
2018-04-01T00:54:50.058Z,3.13
2018-04-01T00:57:17.157Z,2.83
2018-04-01T00:59:44.359Z,2.87
2018-04-01T01:02:11.459Z,2.97
2018-04-01T01:04:38.568Z,2.43
2018-04-01T01:07:05.653Z,3.03
2018-04-01T01:09:33.527Z,2.97
2018-04-01T01:12:01.415Z,2.67
2018-04-01T01:14:28.569Z,2.97
2018-04-01T01:16:56.467Z,2.70
2018-04-01T01:19:23.573Z,3.03
2018-04-01T01:21:51.487Z,2.63
2018-04-01T01:24:18.593Z,2.90
2018-04-01T01:26:45.692Z,3.13
2018-04-01T01:29:12.865Z,2.73
2018-04-01T01:31:39.951Z,3.17
2018-04-01T01:34:07.063Z,2.60
2018-04-01T01:36:34.909Z,2.50
2018-04-01T01:39:02.014Z,2.80
2018-04-01T01:41:29.122Z,2.80
2018-04-01T01:43:56.217Z,2.63
2018-04-01T01:46:24.115Z,2.83
2018-04-01T01:48:51.205Z,3.20
2018-04-01T01:51:18.313Z,2.80
2018-04-01T01:53:45.416Z,3.00
2018-04-01T01:56:12.295Z,3.00
2018-04-01T01:58:39.412Z,2.60
2018-04-01T02:01:06.561Z,2.67
2018-04-01T02:03:33.653Z,2.70
2018-04-01T02:06:01.835Z,2.87
2018-04-01T02:08:28.950Z,2.63
2018-04-01T02:10:56.057Z,2.73
2018-04-01T02:13:23.160Z,2.93
2018-04-01T02:15:51.068Z,2.47
2018-04-01T02:18:18.229Z,2.77
2018-04-01T02:20:45.321Z,2.73
2018-04-01T02:23:12.429Z,2.37
2018-04-01T02:25:39.499Z,2.63
2018-04-01T02:28:07.342Z,2.83
2018-04-01T02:30:34.544Z,2.50
2018-04-01T02:33:01.696Z,2.43
2018-04-01T02:35:28.576Z,2.40
2018-04-01T02:37:55.729Z,2.40
2018-04-01T02:40:22.847Z,2.40
2018-04-01T02:42:49.997Z,2.77
2018-04-01T02:45:17.093Z,2.50
2018-04-01T02:47:44.200Z,2.50
2018-04-01T02:50:11.295Z,2.30
2018-04-01T02:52:38.367Z,2.57
2018-04-01T02:55:05.478Z,2.53
2018-04-01T02:57:32.608Z,2.40
2018-04-01T02:59:59.713Z,2.47
2018-04-01T03:02:27.620Z,2.67
2018-04-01T03:04:54.732Z,2.63
2018-04-01T03:07:21.809Z,2.27
2018-04-01T03:09:48.944Z,2.33
2018-04-01T03:12:16.559Z,2.30
2018-04-01T03:14:43.633Z,2.50
2018-04-01T03:17:10.751Z,2.37
2018-04-01T03:19:37.858Z,2.20
2018-04-01T03:22:05.753Z,2.60
2018-04-01T03:24:32.847Z,2.80
2018-04-01T03:26:59.947Z,2.03
2018-04-01T03:29:27.219Z,2.30
2018-04-01T03:31:54.320Z,2.70
2018-04-01T03:34:22.212Z,2.30
2018-04-01T03:36:49.357Z,2.40
2018-04-01T03:39:16.452Z,2.43
2018-04-01T03:41:43.660Z,2.17
2018-04-01T03:44:10.816Z,2.30
2018-04-01T03:46:37.904Z,2.87
2018-04-01T03:49:05.030Z,2.40
2018-04-01T03:51:32.134Z,2.50
2018-04-01T03:54:00.048Z,2.10
2018-04-01T03:56:27.920Z,2.20
2018-04-01T03:58:55.018Z,2.27
2018-04-01T04:01:22.136Z,2.40
2018-04-01T04:03:49.224Z,2.50
2018-04-01T04:06:16.084Z,2.37
2018-04-01T04:08:42.996Z,2.17
2018-04-01T04:11:10.079Z,2.47
2018-04-01T04:13:37.163Z,2.30
2018-04-01T04:16:05.359Z,2.57
2018-04-01T04:18:32.236Z,2.50
2018-04-01T04:21:00.124Z,2.33
2018-04-01T04:23:27.984Z,2.07
2018-04-01T04:25:55.874Z,1.93
2018-04-01T04:28:23.078Z,2.23
2018-04-01T04:30:50.230Z,2.33
2018-04-01T04:33:17.378Z,2.57
2018-04-01T04:35:44.528Z,2.20
2018-04-01T04:38:12.381Z,2.10
2018-04-01T04:40:40.286Z,2.13
2018-04-01T04:43:07.435Z,2.13
2018-04-01T04:45:34.522Z,2.00
2018-04-01T04:48:01.624Z,2.03
2018-04-01T04:50:28.712Z,2.30
2018-04-01T04:52:55.836Z,2.23
2018-04-01T04:55:22.717Z,2.03
2018-04-01T04:57:49.805Z,2.03
2018-04-01T05:00:16.919Z,2.40
2018-04-01T05:02:44.219Z,2.27
2018-04-01T05:05:11.300Z,2.50
2018-04-01T05:07:39.297Z,2.23
2018-04-01T05:10:06.405Z,2.20
2018-04-01T05:12:34.331Z,2.20
2018-04-01T05:15:01.425Z,2.00
2018-04-01T05:17:28.529Z,2.00
2018-04-01T05:19:55.381Z,1.90
2018-04-01T05:22:22.479Z,2.33
2018-04-01T05:24:50.388Z,1.97
2018-04-01T05:27:17.469Z,2.40
2018-04-01T05:29:44.587Z,2.23
2018-04-01T05:32:11.737Z,2.07
2018-04-01T05:34:38.884Z,2.13
2018-04-01T05:37:05.995Z,2.10
2018-04-01T05:39:33.867Z,2.20
2018-04-01T05:42:01.732Z,2.00
2018-04-01T05:44:29.425Z,2.30
2018-04-01T05:46:56.594Z,1.90
2018-04-01T05:49:23.705Z,1.80
2018-04-01T05:51:50.798Z,2.20
2018-04-01T05:54:17.945Z,2.20
2018-04-01T05:56:45.095Z,2.10
2018-04-01T05:59:12.247Z,2.03
2018-04-01T06:01:39.395Z,1.97
2018-04-01T06:04:06.489Z,2.20
2018-04-01T06:06:33.711Z,2.00
2018-04-01T06:09:00.828Z,1.90
2018-04-01T06:11:28.532Z,2.00
2018-04-01T06:13:55.624Z,2.20
2018-04-01T06:16:22.734Z,2.37
2018-04-01T06:18:50.603Z,2.07
2018-04-01T06:21:18.603Z,2.27
2018-04-01T06:23:45.698Z,2.20
2018-04-01T06:26:12.784Z,2.20
2018-04-01T06:28:39.903Z,2.07
2018-04-01T06:31:07.048Z,2.30
2018-04-01T06:33:34.138Z,2.60
2018-04-01T06:36:02.068Z,2.50
2018-04-01T06:38:29.240Z,2.50
2018-04-01T06:40:56.332Z,2.57
2018-04-01T06:43:23.540Z,3.00
2018-04-01T06:45:50.640Z,3.40
2018-04-01T06:48:20.511Z,2.90
2018-04-01T06:50:47.658Z,3.13
2018-04-01T06:53:15.671Z,4.27
2018-04-01T06:55:42.876Z,3.17
2018-04-01T06:58:10.871Z,4.07
2018-04-01T07:00:38.073Z,3.03
2018-04-01T07:03:05.200Z,2.63
2018-04-01T07:05:32.316Z,3.50
2018-04-01T07:07:59.398Z,3.07
2018-04-01T07:10:26.509Z,3.13
2018-04-01T07:12:53.622Z,3.23
2018-04-01T07:15:20.726Z,3.70
2018-04-01T07:17:47.807Z,4.40
2018-04-01T07:20:15.007Z,3.87
2018-04-01T07:22:42.092Z,3.47
2018-04-01T07:25:09.179Z,3.50
2018-04-01T07:27:36.300Z,3.00
2018-04-01T07:30:03.386Z,3.50
2018-04-01T07:32:31.251Z,3.80
2018-04-01T07:34:58.566Z,3.33
2018-04-01T07:37:25.662Z,3.50
2018-04-01T07:39:52.777Z,3.27
2018-04-01T07:42:19.899Z,3.73
2018-04-01T07:44:46.992Z,3.37
2018-04-01T07:47:14.108Z,3.53
2018-04-01T07:49:42.104Z,2.77
2018-04-01T07:52:09.226Z,3.53
2018-04-01T07:54:36.407Z,3.37
2018-04-01T07:57:03.545Z,2.83
2018-04-01T07:59:30.656Z,2.80
2018-04-01T08:01:57.779Z,2.97
2018-04-01T08:04:24.878Z,2.60
2018-04-01T08:06:52.003Z,2.70
2018-04-01T08:09:19.149Z,3.13
2018-04-01T08:11:46.265Z,3.50
2018-04-01T08:14:14.161Z,2.80
2018-04-01T08:16:42.028Z,3.00
2018-04-01T08:19:09.933Z,2.47
2018-04-01T08:21:37.037Z,2.40
2018-04-01T08:24:04.909Z,2.90
2018-04-01T08:26:31.782Z,2.67
2018-04-01T08:28:58.931Z,2.60
2018-04-01T08:31:26.058Z,2.20
2018-04-01T08:33:53.224Z,2.60
2018-04-01T08:36:20.373Z,2.50
2018-04-01T08:38:47.623Z,2.63
2018-04-01T08:41:14.893Z,2.63
2018-04-01T08:43:42.027Z,2.97
2018-04-01T08:46:10.579Z,2.47
2018-04-01T08:48:38.615Z,2.73
2018-04-01T08:51:07.332Z,2.60
2018-04-01T08:53:35.250Z,3.37
2018-04-01T08:56:02.792Z,2.20
2018-04-01T08:58:29.884Z,2.70
2018-04-01T09:00:56.978Z,2.23
2018-04-01T09:03:24.085Z,2.60
2018-04-01T09:05:51.972Z,2.50
2018-04-01T09:08:19.100Z,2.40
2018-04-01T09:10:46.051Z,3.23
2018-04-01T09:13:13.197Z,2.50
2018-04-01T09:15:40.295Z,2.70
2018-04-01T09:18:07.608Z,2.87
2018-04-01T09:20:34.717Z,2.10
2018-04-01T09:23:01.832Z,2.20
2018-04-01T09:25:28.967Z,2.40
2018-04-01T09:27:56.120Z,2.47
2018-04-01T09:30:23.228Z,2.57
2018-04-01T09:32:51.113Z,2.30
2018-04-01T09:35:18.280Z,2.40
2018-04-01T09:37:45.381Z,2.17
2018-04-01T09:40:13.299Z,2.17
2018-04-01T09:42:40.399Z,2.27
2018-04-01T09:45:08.311Z,1.80
2018-04-01T09:47:35.399Z,1.90
2018-04-01T09:50:02.529Z,2.60
2018-04-01T09:52:29.614Z,2.43
2018-04-01T09:54:56.732Z,2.00
2018-04-01T09:57:23.850Z,1.90
2018-04-01T09:59:50.965Z,2.17
2018-04-01T10:02:18.053Z,2.50
2018-04-01T10:04:45.196Z,2.00
2018-04-01T10:07:12.374Z,2.10
2018-04-01T10:09:39.460Z,2.07
2018-04-01T10:12:06.592Z,2.23
2018-04-01T10:14:33.693Z,2.50
2018-04-01T10:17:00.820Z,1.97
2018-04-01T10:19:27.943Z,1.83
2018-04-01T10:21:55.068Z,2.23
2018-04-01T10:24:22.169Z,2.00
2018-04-01T10:26:49.376Z,2.07
2018-04-01T10:29:16.526Z,1.83
2018-04-01T10:31:43.624Z,1.97
2018-04-01T10:34:10.742Z,1.70
2018-04-01T10:36:38.640Z,1.93
2018-04-01T10:39:05.750Z,1.57
2018-04-01T10:41:33.608Z,2.00
2018-04-01T10:44:00.810Z,1.80
2018-04-01T10:46:27.926Z,1.60
2018-04-01T10:48:55.046Z,2.13
2018-04-01T10:51:22.139Z,1.57
2018-04-01T10:53:50.042Z,2.03
2018-04-01T10:56:17.175Z,1.90
2018-04-01T10:58:44.029Z,1.53
2018-04-01T11:01:11.130Z,1.80
2018-04-01T11:03:39.034Z,1.60
2018-04-01T11:06:06.764Z,1.70
2018-04-01T11:08:33.860Z,1.73
2018-04-01T11:11:00.970Z,1.30
2018-04-01T11:13:28.080Z,1.70
2018-04-01T11:15:56.004Z,1.47
2018-04-01T11:18:23.914Z,1.60
2018-04-01T11:20:51.064Z,1.50
2018-04-01T11:23:18.174Z,1.70
2018-04-01T11:25:46.098Z,2.10
2018-04-01T11:28:13.212Z,2.10
2018-04-01T11:30:40.318Z,2.03
2018-04-01T11:33:07.430Z,1.60
2018-04-01T11:35:34.596Z,1.50
2018-04-01T11:38:01.696Z,1.63
2018-04-01T11:40:28.811Z,1.80
2018-04-01T11:42:55.955Z,1.70
2018-04-01T11:45:23.879Z,1.43
2018-04-01T11:47:51.881Z,1.83
2018-04-01T11:50:18.981Z,1.80
2018-04-01T11:52:46.607Z,1.77
2018-04-01T11:55:13.773Z,1.50
2018-04-01T11:57:40.933Z,1.50
2018-04-01T12:00:08.066Z,1.40
2018-04-01T12:02:35.166Z,1.33
2018-04-01T12:05:02.278Z,1.30
2018-04-01T12:07:30.182Z,1.57
2018-04-01T12:09:57.279Z,1.37
2018-04-01T12:12:25.159Z,1.90
2018-04-01T12:14:53.066Z,1.50
2018-04-01T12:17:20.155Z,1.57
2018-04-01T12:19:47.246Z,1.20
2018-04-01T12:22:14.343Z,1.70
2018-04-01T12:24:41.449Z,1.67
2018-04-01T12:27:08.551Z,1.67
2018-04-01T12:29:35.650Z,1.77
2018-04-01T12:32:02.746Z,1.40
2018-04-01T12:34:29.884Z,1.40
2018-04-01T12:36:57.005Z,1.40
2018-04-01T12:39:24.109Z,1.27
2018-04-01T12:41:51.226Z,1.10
2018-04-01T12:44:18.437Z,1.50
2018-04-01T12:46:45.580Z,1.60
2018-04-01T12:49:12.730Z,1.53
2018-04-01T12:51:39.841Z,1.33
2018-04-01T12:54:07.740Z,1.27
2018-04-01T12:56:34.837Z,1.80
2018-04-01T12:59:01.969Z,1.50
2018-04-01T13:01:29.095Z,1.30
2018-04-01T13:03:56.246Z,1.50
2018-04-01T13:06:24.096Z,1.40
2018-04-01T13:08:52.107Z,1.40
2018-04-01T13:11:19.270Z,1.27
2018-04-01T13:13:46.384Z,1.60
2018-04-01T13:16:14.315Z,1.53
2018-04-01T13:18:41.449Z,1.53
2018-04-01T13:21:08.745Z,1.50
2018-04-01T13:23:35.854Z,1.20
2018-04-01T13:26:04.065Z,1.50
2018-04-01T13:28:31.187Z,1.53
2018-04-01T13:30:58.341Z,1.87
2018-04-01T13:33:26.243Z,1.17
2018-04-01T13:35:53.379Z,1.10
2018-04-01T13:38:20.485Z,1.20
2018-04-01T13:40:47.588Z,1.10
2018-04-01T13:43:14.703Z,1.43
2018-04-01T13:45:41.807Z,1.27
2018-04-01T13:48:08.916Z,1.10
2018-04-01T13:50:36.093Z,1.17
2018-04-01T13:53:03.368Z,1.40
2018-04-01T13:55:31.277Z,1.10
2018-04-01T13:57:58.381Z,1.40
2018-04-01T14:00:25.550Z,1.50
2018-04-01T14:02:52.647Z,1.40
2018-04-01T14:05:20.518Z,1.23
2018-04-01T14:07:47.663Z,1.30
2018-04-01T14:10:14.774Z,1.20
2018-04-01T14:12:42.695Z,1.37
2018-04-01T14:15:09.826Z,1.10
2018-04-01T14:17:36.923Z,1.40
2018-04-01T14:20:04.043Z,1.40
2018-04-01T14:22:31.186Z,1.20
2018-04-01T14:24:58.324Z,1.20
2018-04-01T14:27:25.423Z,1.30
2018-04-01T14:29:52.565Z,1.60
2018-04-01T14:32:19.667Z,1.53
2018-04-01T14:34:46.834Z,1.20
2018-04-01T14:37:13.965Z,1.40
2018-04-01T14:39:41.056Z,1.10
2018-04-01T14:42:08.917Z,1.40
2018-04-01T14:44:36.023Z,1.30
2018-04-01T14:47:03.164Z,1.00
2018-04-01T14:49:30.270Z,1.30
2018-04-01T14:51:58.166Z,1.20
2018-04-01T14:54:25.333Z,1.50
2018-04-01T14:56:52.448Z,1.13
2018-04-01T14:59:19.590Z,1.20
2018-04-01T15:01:46.720Z,1.30
2018-04-01T15:04:13.847Z,1.70
2018-04-01T15:06:40.949Z,1.30
2018-04-01T15:09:08.848Z,1.23
2018-04-01T15:11:35.964Z,1.00
2018-04-01T15:14:03.843Z,1.33
2018-04-01T15:16:30.932Z,1.10
2018-04-01T15:18:58.836Z,1.20
2018-04-01T15:21:25.914Z,1.10
2018-04-01T15:23:53.014Z,1.20
2018-04-01T15:26:20.119Z,1.50
2018-04-01T15:28:47.228Z,1.33
2018-04-01T15:31:14.309Z,1.30
2018-04-01T15:33:41.178Z,1.50
2018-04-01T15:36:08.300Z,1.30
2018-04-01T15:38:35.444Z,1.20
2018-04-01T15:41:02.564Z,1.30
2018-04-01T15:43:29.648Z,1.00
2018-04-01T15:45:56.762Z,1.27
2018-04-01T15:48:23.863Z,1.20
2018-04-01T15:50:50.952Z,1.20
2018-04-01T15:53:18.083Z,1.07
2018-04-01T15:55:45.238Z,1.20
2018-04-01T15:58:12.466Z,1.00
2018-04-01T16:00:39.613Z,1.47
2018-04-01T16:03:06.760Z,1.00
2018-04-01T16:05:33.851Z,1.20
2018-04-01T16:08:01.002Z,1.10
2018-04-01T16:10:28.140Z,0.97
2018-04-01T16:12:55.302Z,1.20
2018-04-01T16:15:22.428Z,1.07
2018-04-01T16:17:49.586Z,1.30
2018-04-01T16:20:16.734Z,1.20
2018-04-01T16:22:43.834Z,1.10
2018-04-01T16:25:10.952Z,1.10
2018-04-01T16:27:38.043Z,1.30
2018-04-01T16:30:04.907Z,1.10
2018-04-01T16:32:32.793Z,1.17
2018-04-01T16:34:59.894Z,1.07
2018-04-01T16:37:27.022Z,1.17
2018-04-01T16:39:54.118Z,1.30
2018-04-01T16:42:22.010Z,1.57
2018-04-01T16:44:49.168Z,1.40
2018-04-01T16:47:16.286Z,1.10
2018-04-01T16:49:44.164Z,1.20
2018-04-01T16:52:11.297Z,1.20
2018-04-01T16:54:39.160Z,1.40
2018-04-01T16:57:06.363Z,1.17
2018-04-01T16:59:34.255Z,1.03
2018-04-01T17:02:01.351Z,0.90
2018-04-01T17:04:29.269Z,1.10
2018-04-01T17:06:56.401Z,1.40
2018-04-01T17:09:23.577Z,1.10
2018-04-01T17:11:51.609Z,1.10
2018-04-01T17:14:18.709Z,1.27
2018-04-01T17:16:46.566Z,1.00
2018-04-01T17:19:14.211Z,1.20
2018-04-01T17:21:42.270Z,1.20
2018-04-01T17:24:09.371Z,1.30
2018-04-01T17:26:37.274Z,1.03
2018-04-01T17:29:04.373Z,1.20
2018-04-01T17:31:31.265Z,1.43
2018-04-01T17:33:58.421Z,1.13
2018-04-01T17:36:26.287Z,1.10
2018-04-01T17:38:54.193Z,1.17
2018-04-01T17:41:21.356Z,1.10
2018-04-01T17:43:49.387Z,1.10
2018-04-01T17:46:16.507Z,1.03
2018-04-01T17:48:44.408Z,1.00
2018-04-01T17:51:11.510Z,1.40
2018-04-01T17:53:38.624Z,1.17
2018-04-01T17:56:06.489Z,1.10
2018-04-01T17:58:33.583Z,1.10
2018-04-01T18:01:00.671Z,1.10
2018-04-01T18:03:27.782Z,1.40
2018-04-01T18:05:54.929Z,1.20
2018-04-01T18:08:22.211Z,1.13
2018-04-01T18:10:49.323Z,1.10
2018-04-01T18:13:16.265Z,1.30
2018-04-01T18:15:43.352Z,1.23
2018-04-01T18:18:10.454Z,1.03
2018-04-01T18:20:37.568Z,1.20
2018-04-01T18:23:04.743Z,1.20
2018-04-01T18:25:32.002Z,1.30
2018-04-01T18:27:59.089Z,1.50
2018-04-01T18:30:26.193Z,1.40
2018-04-01T18:32:53.299Z,1.30
2018-04-01T18:35:20.405Z,1.00
2018-04-01T18:37:47.579Z,1.20
2018-04-01T18:40:14.736Z,1.23
2018-04-01T18:42:41.877Z,1.20
2018-04-01T18:45:08.972Z,1.10
2018-04-01T18:47:36.088Z,1.10
2018-04-01T18:50:03.193Z,1.27
2018-04-01T18:52:30.325Z,1.20
2018-04-01T18:54:57.442Z,1.20
2018-04-01T18:57:24.542Z,1.10
2018-04-01T18:59:51.659Z,1.30
2018-04-01T19:02:18.810Z,1.00
2018-04-01T19:04:45.898Z,1.03
2018-04-01T19:07:13.772Z,1.20
2018-04-01T19:09:41.676Z,1.40
2018-04-01T19:12:08.781Z,1.10
2018-04-01T19:14:35.891Z,1.13
2018-04-01T19:17:03.769Z,1.00
2018-04-01T19:19:30.891Z,1.10
2018-04-01T19:21:58.550Z,1.23
2018-04-01T19:24:25.666Z,1.20
2018-04-01T19:26:52.796Z,1.07
2018-04-01T19:29:20.035Z,1.10
2018-04-01T19:31:47.186Z,1.20
2018-04-01T19:34:14.263Z,1.03
2018-04-01T19:36:41.376Z,1.17
2018-04-01T19:39:08.688Z,1.30
2018-04-01T19:41:35.802Z,1.33
2018-04-01T19:44:02.900Z,1.20
2018-04-01T19:46:30.114Z,1.20
2018-04-01T19:48:57.223Z,1.17
2018-04-01T19:51:25.104Z,1.20
2018-04-01T19:53:52.198Z,1.13
2018-04-01T19:56:19.464Z,1.30
2018-04-01T19:58:46.706Z,1.20
2018-04-01T20:01:13.816Z,1.30
2018-04-01T20:03:40.963Z,1.40
2018-04-01T20:06:12.559Z,1.20
2018-04-01T20:08:39.662Z,1.20
2018-04-01T20:11:06.861Z,1.40
2018-04-01T20:13:33.968Z,1.30
2018-04-01T20:16:01.543Z,1.33
2018-04-01T20:18:28.674Z,1.30
2018-04-01T20:20:57.342Z,1.47
2018-04-01T20:23:24.588Z,1.20
2018-04-01T20:25:51.688Z,1.10
2018-04-01T20:28:18.784Z,1.40
2018-04-01T20:30:45.882Z,1.50
2018-04-01T20:33:12.970Z,1.30
2018-04-01T20:35:40.578Z,1.60
2018-04-01T20:38:07.850Z,1.60
2018-04-01T20:40:35.791Z,1.60
2018-04-01T20:43:03.948Z,1.30
2018-04-01T20:45:32.728Z,1.57
2018-04-01T20:47:59.918Z,1.57
2018-04-01T20:50:27.815Z,1.57
2018-04-01T20:52:55.282Z,1.63
2018-04-01T20:55:22.429Z,1.93
2018-04-01T20:57:49.735Z,1.37
2018-04-01T21:00:16.988Z,1.37
2018-04-01T21:02:44.511Z,1.40
2018-04-01T21:05:11.891Z,1.60
2018-04-01T21:07:39.522Z,1.43
2018-04-01T21:10:06.745Z,1.60
2018-04-01T21:12:33.666Z,1.50
2018-04-01T21:15:00.970Z,1.57
2018-04-01T21:17:28.930Z,1.67
2018-04-01T21:19:56.048Z,1.43
2018-04-01T21:22:23.218Z,1.53
2018-04-01T21:24:50.360Z,1.73
2018-04-01T21:27:17.500Z,1.90
2018-04-01T21:29:45.416Z,1.57
2018-04-01T21:32:12.299Z,1.83
2018-04-01T21:34:39.411Z,1.53
2018-04-01T21:37:06.267Z,1.80
2018-04-01T21:39:33.386Z,2.20
2018-04-01T21:42:01.286Z,1.70
2018-04-01T21:44:28.436Z,1.57
2018-04-01T21:46:55.585Z,1.70
2018-04-01T21:49:22.707Z,1.80
2018-04-01T21:51:49.863Z,1.57
2018-04-01T21:54:17.023Z,1.70
2018-04-01T21:56:44.938Z,1.73
2018-04-01T21:59:12.062Z,1.70
2018-04-01T22:01:39.211Z,1.43
2018-04-01T22:04:06.096Z,2.07
2018-04-01T22:06:33.234Z,1.57
2018-04-01T22:09:00.369Z,1.93
2018-04-01T22:11:27.565Z,1.50
2018-04-01T22:13:54.667Z,1.90
2018-04-01T22:16:21.785Z,1.67
2018-04-01T22:18:49.679Z,1.70
2018-04-01T22:21:16.779Z,2.20
2018-04-01T22:23:43.997Z,1.80
2018-04-01T22:26:10.870Z,1.80
2018-04-01T22:28:37.975Z,1.73
2018-04-01T22:31:05.070Z,2.10
2018-04-01T22:33:33.126Z,1.73
2018-04-01T22:36:01.250Z,1.67
2018-04-01T22:38:28.373Z,1.77
2018-04-01T22:40:55.748Z,1.63
2018-04-01T22:43:22.878Z,2.07
2018-04-01T22:45:50.200Z,1.73
2018-04-01T22:48:17.427Z,1.97
2018-04-01T22:50:44.524Z,1.87
2018-04-01T22:53:11.434Z,2.30
2018-04-01T22:55:38.527Z,1.80
2018-04-01T22:58:06.387Z,1.90
2018-04-01T23:00:34.298Z,1.80
2018-04-01T23:03:01.406Z,1.90
2018-04-01T23:05:29.304Z,1.90
2018-04-01T23:07:56.416Z,1.83
2018-04-01T23:10:23.553Z,1.93
2018-04-01T23:12:50.849Z,1.70
2018-04-01T23:15:18.125Z,2.27
2018-04-01T23:17:45.272Z,1.73
2018-04-01T23:20:12.375Z,1.87
2018-04-01T23:22:39.564Z,2.07
2018-04-01T23:25:06.889Z,1.60
2018-04-01T23:27:34.749Z,2.00
2018-04-01T23:30:01.865Z,1.80
2018-04-01T23:32:28.991Z,1.60
2018-04-01T23:34:56.153Z,2.20
2018-04-01T23:37:23.370Z,1.97
2018-04-01T23:39:50.612Z,1.80
2018-04-01T23:42:17.708Z,1.80
2018-04-01T23:44:44.794Z,1.80
2018-04-01T23:47:11.924Z,1.90
2018-04-01T23:49:40.066Z,1.90
2018-04-01T23:52:10.534Z,2.33
2018-04-01T23:54:38.494Z,1.63
2018-04-01T23:57:05.610Z,2.07
2018-04-01T23:59:34.132Z,1.97
